Time;durP1;ratioP1;P1;durP2;ratioP2;P2;SDS_P1;SDS_P2;PMS_P1;PMS_P2;Temp;Humidity;BMP_temperature;BMP_pressure;BME280_temperature;BME280_humidity;BME280_pressure;Samples;Min_cycle;Max_cycle;Signal;HPM_P1;HPM_P2
2023/05/05 00:00:03;;;;;;;0.00;0.00;;;;;;;;;;1738980;28;20212;-76
2023/05/05 00:00:55;;;;;;;0.00;0.00;;;;;;;;;;1736963;28;20273;-76
2023/05/05 00:01:46;;;;;;;0.00;0.00;;;;;;;;;;1740378;28;20688;-76
2023/05/05 00:02:38;;;;;;;0.00;0.00;;;;;;;;;;1740959;28;20200;-76
2023/05/05 00:03:29;;;;;;;0.00;0.00;;;;;;;;;;1738870;28;20314;-76
2023/05/05 00:04:21;;;;;;;0.00;0.00;;;;;;;;;;1738327;28;20209;-76
2023/05/05 00:05:12;;;;;;;0.00;0.00;;;;;;;;;;1737896;28;20204;-76
2023/05/05 00:06:06;;;;;;;0.00;0.00;;;;;;;;;;1738083;28;20242;-76
2023/05/05 00:06:57;;;;;;;0.00;0.00;;;;;;;;;;1738732;28;20649;-76
2023/05/05 00:07:49;;;;;;;0.00;0.00;;;;;;;;;;1738441;28;20285;-76
2023/05/05 00:08:41;;;;;;;0.00;0.00;;;;;;;;;;1738491;28;20214;-76
2023/05/05 00:09:33;;;;;;;0.00;0.00;;;;;;;;;;1738633;28;20203;-76
2023/05/05 00:10:24;;;;;;;0.00;0.00;;;;;;;;;;1738829;28;20463;-76
2023/05/05 00:11:15;;;;;;;0.00;0.00;;;;;;;;;;1736645;28;20208;-76
2023/05/05 00:12:07;;;;;;;0.00;0.00;;;;;;;;;;1730007;28;20286;-77
2023/05/05 00:12:58;;;;;;;0.00;0.00;;;;;;;;;;1731719;28;20559;-77
2023/05/05 00:13:51;;;;;;;0.00;0.00;;;;;;;;;;1732053;28;20584;-77
2023/05/05 00:14:42;;;;;;;0.00;0.00;;;;;;;;;;1731308;28;20215;-77
2023/05/05 00:15:34;;;;;;;0.00;0.00;;;;;;;;;;1730456;28;20322;-77
2023/05/05 00:16:25;;;;;;;0.00;0.00;;;;;;;;;;1731309;28;20557;-77
2023/05/05 00:17:17;;;;;;;0.00;0.00;;;;;;;;;;1732091;28;20211;-76
2023/05/05 00:18:08;;;;;;;0.00;0.00;;;;;;;;;;1731402;28;20210;-76
2023/05/05 00:19:00;;;;;;;0.00;0.00;;;;;;;;;;1732068;28;20229;-76
2023/05/05 00:19:51;;;;;;;0.00;0.00;;;;;;;;;;1731576;28;20555;-76
2023/05/05 00:20:45;;;;;;;0.00;0.00;;;;;;;;;;1730363;28;20235;-76
2023/05/05 00:21:36;;;;;;;0.00;0.00;;;;;;;;;;1730735;28;20208;-76
2023/05/05 00:22:29;;;;;;;0.00;0.00;;;;;;;;;;1731967;28;20208;-76
2023/05/05 00:23:20;;;;;;;0.00;0.00;;;;;;;;;;1731418;28;20206;-76
2023/05/05 00:24:13;;;;;;;0.00;0.00;;;;;;;;;;1731858;28;20203;-76
2023/05/05 00:25:06;;;;;;;0.00;0.00;;;;;;;;;;1732046;28;20749;-76
2023/05/05 00:25:57;;;;;;;0.00;0.00;;;;;;;;;;1723515;28;20228;-76
2023/05/05 00:26:49;;;;;;;0.00;0.00;;;;;;;;;;1731462;28;20258;-76
2023/05/05 00:27:40;;;;;;;0.00;0.00;;;;;;;;;;1731827;28;20324;-76
2023/05/05 00:28:32;;;;;;;0.00;0.00;;;;;;;;;;1731836;28;20206;-76
2023/05/05 00:29:24;;;;;;;0.00;0.00;;;;;;;;;;1731284;28;20568;-76
2023/05/05 00:30:16;;;;;;;0.00;0.00;;;;;;;;;;1730015;28;20266;-76
2023/05/05 00:31:07;;;;;;;0.00;0.00;;;;;;;;;;1730995;28;20268;-76
2023/05/05 00:31:59;;;;;;;0.00;0.00;;;;;;;;;;1731811;28;20229;-76
2023/05/05 00:32:50;;;;;;;0.00;0.00;;;;;;;;;;1731451;28;20211;-76
2023/05/05 00:33:42;;;;;;;0.00;0.00;;;;;;;;;;1731807;28;20718;-76
2023/05/05 00:34:33;;;;;;;0.00;0.00;;;;;;;;;;1731464;28;20640;-76
2023/05/05 00:35:25;;;;;;;0.00;0.00;;;;;;;;;;1730189;28;20344;-76
2023/05/05 00:36:17;;;;;;;0.00;0.00;;;;;;;;;;1731494;28;20211;-76
2023/05/05 00:37:09;;;;;;;0.00;0.00;;;;;;;;;;1731961;28;20623;-76
2023/05/05 00:38:00;;;;;;;0.00;0.00;;;;;;;;;;1731677;28;20277;-76
2023/05/05 00:38:52;;;;;;;0.00;0.00;;;;;;;;;;1731765;28;20208;-76
2023/05/05 00:39:45;;;;;;;0.00;0.00;;;;;;;;;;1731241;28;20216;-76
2023/05/05 00:40:37;;;;;;;0.00;0.00;;;;;;;;;;1729940;28;20788;-76
2023/05/05 00:41:28;;;;;;;0.00;0.00;;;;;;;;;;1731482;28;20222;-76
2023/05/05 00:42:20;;;;;;;0.00;0.00;;;;;;;;;;1732013;28;20224;-76
2023/05/05 00:43:11;;;;;;;0.00;0.00;;;;;;;;;;1731462;28;20247;-76
2023/05/05 00:44:04;;;;;;;0.00;0.00;;;;;;;;;;1731916;28;20213;-76
2023/05/05 00:44:55;;;;;;;0.00;0.00;;;;;;;;;;1731431;28;20604;-77
2023/05/05 00:45:47;;;;;;;0.00;0.00;;;;;;;;;;1730149;28;20347;-76
2023/05/05 00:46:39;;;;;;;0.00;0.00;;;;;;;;;;1731497;28;20276;-76
2023/05/05 00:47:30;;;;;;;0.00;0.00;;;;;;;;;;1732018;28;20216;-76
2023/05/05 00:48:23;;;;;;;0.00;0.00;;;;;;;;;;1731241;28;20208;-75
2023/05/05 00:49:15;;;;;;;0.00;0.00;;;;;;;;;;1731966;28;20288;-76
2023/05/05 00:50:07;;;;;;;0.00;0.00;;;;;;;;;;1730196;28;20231;-76
2023/05/05 00:50:59;;;;;;;0.00;0.00;;;;;;;;;;1724129;28;20260;-76
2023/05/05 00:51:51;;;;;;;0.00;0.00;;;;;;;;;;1731312;28;20881;-76
2023/05/05 00:52:42;;;;;;;0.00;0.00;;;;;;;;;;1731386;28;20699;-76
2023/05/05 00:53:34;;;;;;;0.00;0.00;;;;;;;;;;1731500;28;20211;-77
2023/05/05 00:54:25;;;;;;;0.00;0.00;;;;;;;;;;1731168;28;20215;-77
2023/05/05 00:55:19;;;;;;;0.00;0.00;;;;;;;;;;1730226;28;20210;-77
2023/05/05 00:56:10;;;;;;;0.00;0.00;;;;;;;;;;1730920;28;20266;-76
2023/05/05 00:57:02;;;;;;;0.00;0.00;;;;;;;;;;1732300;28;20672;-76
2023/05/05 00:57:53;;;;;;;0.00;0.00;;;;;;;;;;1731405;28;20281;-76
2023/05/05 00:58:45;;;;;;;0.00;0.00;;;;;;;;;;1731602;28;20659;-76
2023/05/05 00:59:37;;;;;;;0.00;0.00;;;;;;;;;;1731272;28;20269;-77
2023/05/05 01:00:29;;;;;;;0.00;0.00;;;;;;;;;;1729831;28;20234;-76
2023/05/05 01:01:21;;;;;;;0.00;0.00;;;;;;;;;;1731198;28;20215;-76
2023/05/05 01:02:12;;;;;;;0.00;0.00;;;;;;;;;;1727116;28;20235;-76
2023/05/05 01:03:04;;;;;;;0.00;0.00;;;;;;;;;;1731808;28;20254;-77
2023/05/05 01:03:56;;;;;;;0.00;0.00;;;;;;;;;;1733793;28;20318;-76
2023/05/05 01:04:47;;;;;;;0.00;0.00;;;;;;;;;;1733496;28;20212;-76
2023/05/05 01:05:47;;;;;;;0.00;0.00;;;;;;;;;;1732575;28;20799;-76
2023/05/05 01:06:43;;;;;;;0.00;0.00;;;;;;;;;;1733420;28;20215;-76
2023/05/05 01:07:38;;;;;;;0.00;0.00;;;;;;;;;;1734059;28;20387;-76
2023/05/05 01:08:36;;;;;;;0.00;0.00;;;;;;;;;;1732489;28;20262;-75
2023/05/05 01:09:33;;;;;;;0.00;0.00;;;;;;;;;;1733757;28;20198;-76
2023/05/05 01:10:30;;;;;;;0.00;0.00;;;;;;;;;;1734206;28;20196;-76
2023/05/05 01:11:27;;;;;;;0.00;0.00;;;;;;;;;;1733220;28;20215;-77
2023/05/05 01:12:24;;;;;;;0.00;0.00;;;;;;;;;;1734027;28;20283;-76
2023/05/05 01:13:21;;;;;;;0.00;0.00;;;;;;;;;;1733492;28;20212;-76
2023/05/05 01:14:14;;;;;;;0.00;0.00;;;;;;;;;;1734071;28;20195;-76
2023/05/05 01:15:11;;;;;;;0.00;0.00;;;;;;;;;;1734186;28;20209;-76
2023/05/05 01:16:07;;;;;;;0.00;0.00;;;;;;;;;;1728134;28;20609;-76
2023/05/05 01:17:03;;;;;;;0.00;0.00;;;;;;;;;;1730496;28;20200;-76
2023/05/05 01:17:59;;;;;;;0.00;0.00;;;;;;;;;;1733590;28;20204;-76
2023/05/05 01:18:54;;;;;;;0.00;0.00;;;;;;;;;;1733964;28;20258;-76
2023/05/05 01:20:02;;;;;;;0.00;0.00;;;;;;;;;;1733811;28;20272;-76
2023/05/05 01:20:58;;;;;;;0.00;0.00;;;;;;;;;;1733554;28;20655;-76
2023/05/05 01:21:53;;;;;;;0.00;0.00;;;;;;;;;;1733589;28;20264;-76
2023/05/05 01:22:46;;;;;;;0.00;0.00;;;;;;;;;;1733833;28;20664;-76
2023/05/05 01:23:48;;;;;;;0.00;0.00;;;;;;;;;;1733753;28;20245;-76
2023/05/05 01:24:56;;;;;;;0.00;0.00;;;;;;;;;;1733632;28;20213;-75
2023/05/05 01:25:59;;;;;;;0.00;0.00;;;;;;;;;;1734089;28;20214;-76
2023/05/05 01:27:00;;;;;;;0.00;0.00;;;;;;;;;;1733933;28;20218;-76
2023/05/05 01:28:00;;;;;;;0.00;0.00;;;;;;;;;;1733427;28;20305;-76
2023/05/05 01:29:01;;;;;;;0.00;0.00;;;;;;;;;;1734189;28;20202;-76
2023/05/05 01:30:01;;;;;;;0.00;0.00;;;;;;;;;;1736870;28;20220;-76
2023/05/05 01:31:14;;;;;;;0.00;0.00;;;;;;;;;;1734725;28;20200;-76
2023/05/05 01:32:08;;;;;;;0.00;0.00;;;;;;;;;;1727242;28;20278;-78
2023/05/05 01:33:02;;;;;;;0.00;0.00;;;;;;;;;;1730235;28;20449;-75
2023/05/05 01:33:55;;;;;;;0.00;0.00;;;;;;;;;;1733642;28;20579;-75
2023/05/05 01:34:51;;;;;;;0.00;0.00;;;;;;;;;;1733633;28;20541;-74
2023/05/05 01:35:43;;;;;;;0.00;0.00;;;;;;;;;;1734104;28;20354;-74
2023/05/05 01:36:37;;;;;;;0.00;0.00;;;;;;;;;;1733440;28;20522;-74
2023/05/05 01:37:30;;;;;;;0.00;0.00;;;;;;;;;;1734062;28;20273;-76
2023/05/05 01:38:23;;;;;;;0.00;0.00;;;;;;;;;;1733315;28;20227;-76
2023/05/05 01:39:15;;;;;;;0.00;0.00;;;;;;;;;;1734132;28;20202;-77
2023/05/05 01:40:09;;;;;;;0.00;0.00;;;;;;;;;;1734034;28;20773;-76
2023/05/05 01:41:03;;;;;;;0.00;0.00;;;;;;;;;;1728069;28;20302;-76
2023/05/05 01:41:57;;;;;;;0.00;0.00;;;;;;;;;;1736542;28;20205;-76
2023/05/05 01:42:50;;;;;;;0.00;0.00;;;;;;;;;;1734523;28;20673;-76
2023/05/05 01:43:43;;;;;;;0.00;0.00;;;;;;;;;;1732059;28;20219;-76
2023/05/05 01:44:36;;;;;;;0.00;0.00;;;;;;;;;;1733414;28;20196;-76
2023/05/05 01:45:30;;;;;;;0.00;0.00;;;;;;;;;;1734608;28;20572;-76
2023/05/05 01:46:24;;;;;;;0.00;0.00;;;;;;;;;;1733112;28;20637;-76
2023/05/05 01:47:18;;;;;;;0.00;0.00;;;;;;;;;;1734146;28;20207;-76
2023/05/05 01:48:11;;;;;;;0.00;0.00;;;;;;;;;;1730790;28;20545;-76
2023/05/05 01:49:03;;;;;;;0.00;0.00;;;;;;;;;;1734270;28;20226;-76
2023/05/05 01:49:54;;;;;;;0.00;0.00;;;;;;;;;;1730109;28;20606;-76
2023/05/05 01:50:47;;;;;;;0.00;0.00;;;;;;;;;;1732460;28;20211;-76
2023/05/05 01:51:39;;;;;;;0.00;0.00;;;;;;;;;;1733091;28;20280;-76
2023/05/05 01:52:32;;;;;;;0.00;0.00;;;;;;;;;;1733708;28;20203;-76
2023/05/05 01:53:23;;;;;;;0.00;0.00;;;;;;;;;;1733864;28;20652;-76
2023/05/05 01:54:15;;;;;;;0.00;0.00;;;;;;;;;;1734317;28;20198;-76
2023/05/05 01:55:07;;;;;;;0.00;0.00;;;;;;;;;;1733936;28;20204;-75
2023/05/05 01:55:58;;;;;;;0.00;0.00;;;;;;;;;;1728141;28;20207;-76
2023/05/05 01:56:51;;;;;;;0.00;0.00;;;;;;;;;;1733698;28;20202;-76
2023/05/05 01:57:43;;;;;;;0.00;0.00;;;;;;;;;;1734213;28;20272;-76
2023/05/05 01:58:35;;;;;;;0.00;0.00;;;;;;;;;;1733978;28;20727;-76
2023/05/05 01:59:27;;;;;;;0.00;0.00;;;;;;;;;;1733982;28;20265;-76
2023/05/05 02:00:19;;;;;;;0.00;0.00;;;;;;;;;;1734757;28;20636;-76
2023/05/05 02:01:12;;;;;;;0.00;0.00;;;;;;;;;;1733632;28;20203;-76
2023/05/05 02:02:04;;;;;;;0.00;0.00;;;;;;;;;;1728558;28;20214;-76
2023/05/05 02:02:58;;;;;;;0.00;0.00;;;;;;;;;;1733223;28;20279;-76
2023/05/05 02:03:50;;;;;;;0.00;0.00;;;;;;;;;;1734084;28;20323;-76
2023/05/05 02:04:43;;;;;;;0.00;0.00;;;;;;;;;;1733700;28;20319;-76
2023/05/05 02:05:35;;;;;;;0.00;0.00;;;;;;;;;;1734544;28;20238;-76
2023/05/05 02:06:31;;;;;;;0.00;0.00;;;;;;;;;;1733420;28;20200;-76
2023/05/05 02:07:23;;;;;;;0.00;0.00;;;;;;;;;;1734002;28;20223;-76
2023/05/05 02:08:16;;;;;;;0.00;0.00;;;;;;;;;;1733721;28;20207;-76
2023/05/05 02:09:10;;;;;;;0.00;0.00;;;;;;;;;;1734107;28;20270;-76
2023/05/05 02:10:03;;;;;;;0.00;0.00;;;;;;;;;;1733976;28;20629;-75
2023/05/05 02:10:55;;;;;;;0.00;0.00;;;;;;;;;;1734264;28;20218;-76
2023/05/05 02:11:47;;;;;;;0.00;0.00;;;;;;;;;;1733301;28;20250;-76
2023/05/05 02:12:38;;;;;;;0.00;0.00;;;;;;;;;;1733749;28;20358;-76
2023/05/05 02:13:31;;;;;;;0.00;0.00;;;;;;;;;;1733532;28;20207;-76
2023/05/05 02:14:23;;;;;;;0.00;0.00;;;;;;;;;;1733847;28;20698;-76
2023/05/05 02:15:15;;;;;;;0.00;0.00;;;;;;;;;;1731958;28;20221;-76
2023/05/05 02:16:07;;;;;;;0.00;0.00;;;;;;;;;;1732594;28;20214;-75
2023/05/05 02:17:00;;;;;;;0.00;0.00;;;;;;;;;;1732649;28;20659;-76
2023/05/05 02:17:51;;;;;;;0.00;0.00;;;;;;;;;;1732087;28;20208;-76
2023/05/05 02:18:45;;;;;;;0.00;0.00;;;;;;;;;;1732776;28;20241;-76
2023/05/05 02:19:39;;;;;;;0.00;0.00;;;;;;;;;;1732154;28;20265;-75
2023/05/05 02:20:31;;;;;;;0.00;0.00;;;;;;;;;;1731331;28;20604;-76
2023/05/05 02:21:23;;;;;;;0.00;0.00;;;;;;;;;;1731586;28;20256;-77
2023/05/05 02:22:15;;;;;;;0.00;0.00;;;;;;;;;;1728230;28;20269;-77
2023/05/05 02:23:08;;;;;;;0.00;0.00;;;;;;;;;;1732699;28;20501;-76
2023/05/05 02:23:59;;;;;;;0.00;0.00;;;;;;;;;;1732002;28;20743;-77
2023/05/05 02:24:51;;;;;;;0.00;0.00;;;;;;;;;;1732221;28;20545;-77
2023/05/05 02:25:46;;;;;;;0.00;0.00;;;;;;;;;;1733032;28;20245;-77
2023/05/05 02:26:40;;;;;;;0.00;0.00;;;;;;;;;;1732152;28;20277;-77
2023/05/05 02:27:32;;;;;;;0.00;0.00;;;;;;;;;;1732904;28;20312;-77
2023/05/05 02:28:31;;;;;;;0.00;0.00;;;;;;;;;;1732048;28;20429;-77
2023/05/05 02:29:24;;;;;;;0.00;0.00;;;;;;;;;;1732625;28;20216;-77
2023/05/05 02:30:17;;;;;;;0.00;0.00;;;;;;;;;;1732903;28;20210;-77
2023/05/05 02:31:09;;;;;;;0.00;0.00;;;;;;;;;;1732099;28;20650;-77
2023/05/05 02:32:03;;;;;;;0.00;0.00;;;;;;;;;;1732555;28;20244;-76
2023/05/05 02:32:55;;;;;;;0.00;0.00;;;;;;;;;;1731800;28;20207;-77
2023/05/05 02:33:50;;;;;;;0.00;0.00;;;;;;;;;;1731078;28;20214;-76
2023/05/05 02:34:42;;;;;;;0.00;0.00;;;;;;;;;;1732161;28;20214;-76
2023/05/05 02:35:37;;;;;;;0.00;0.00;;;;;;;;;;1733142;28;20260;-77
2023/05/05 02:36:29;;;;;;;0.00;0.00;;;;;;;;;;1731552;28;20242;-77
2023/05/05 02:37:23;;;;;;;0.00;0.00;;;;;;;;;;1732599;28;20216;-77
2023/05/05 02:38:16;;;;;;;0.00;0.00;;;;;;;;;;1732069;28;20211;-77
2023/05/05 02:39:11;;;;;;;0.00;0.00;;;;;;;;;;1732986;28;20205;-77
2023/05/05 02:40:04;;;;;;;0.00;0.00;;;;;;;;;;1731417;28;20210;-77
2023/05/05 02:40:57;;;;;;;0.00;0.00;;;;;;;;;;1732048;28;20749;-77
2023/05/05 02:41:48;;;;;;;0.00;0.00;;;;;;;;;;1732179;28;20274;-76
2023/05/05 02:42:41;;;;;;;0.00;0.00;;;;;;;;;;1732036;28;20568;-76
2023/05/05 02:43:33;;;;;;;0.00;0.00;;;;;;;;;;1732227;28;20206;-77
2023/05/05 02:44:26;;;;;;;0.00;0.00;;;;;;;;;;1732115;28;20652;-77
2023/05/05 02:45:19;;;;;;;0.00;0.00;;;;;;;;;;1732979;28;20256;-77
2023/05/05 02:46:11;;;;;;;0.00;0.00;;;;;;;;;;1732115;28;20212;-77
2023/05/05 02:47:02;;;;;;;0.00;0.00;;;;;;;;;;1732729;28;20377;-77
2023/05/05 02:47:54;;;;;;;0.00;0.00;;;;;;;;;;1732177;28;20216;-77
2023/05/05 02:48:45;;;;;;;0.00;0.00;;;;;;;;;;1732447;28;20601;-77
2023/05/05 02:49:39;;;;;;;0.00;0.00;;;;;;;;;;1728576;28;20203;-77
2023/05/05 02:50:30;;;;;;;0.00;0.00;;;;;;;;;;1729973;28;20207;-77
2023/05/05 02:51:22;;;;;;;0.00;0.00;;;;;;;;;;1728721;28;20205;-77
2023/05/05 02:52:13;;;;;;;0.00;0.00;;;;;;;;;;1731475;28;20274;-77
2023/05/05 02:53:05;;;;;;;0.00;0.00;;;;;;;;;;1732433;28;20206;-77
2023/05/05 02:53:56;;;;;;;0.00;0.00;;;;;;;;;;1729314;28;20299;-77
2023/05/05 02:54:48;;;;;;;0.00;0.00;;;;;;;;;;1730173;28;20202;-77
2023/05/05 02:55:42;;;;;;;0.00;0.00;;;;;;;;;;1731928;28;20210;-77
2023/05/05 02:56:39;;;;;;;0.00;0.00;;;;;;;;;;1732083;28;20696;-77
2023/05/05 02:57:33;;;;;;;0.00;0.00;;;;;;;;;;1732688;28;20931;-78
2023/05/05 02:58:27;;;;;;;0.00;0.00;;;;;;;;;;1728681;28;20215;-77
2023/05/05 02:59:21;;;;;;;0.00;0.00;;;;;;;;;;1732381;28;20513;-77
2023/05/05 03:00:16;;;;;;;0.00;0.00;;;;;;;;;;1732387;28;20198;-77
2023/05/05 03:01:10;;;;;;;0.00;0.00;;;;;;;;;;1732459;28;20253;-77
2023/05/05 03:02:08;;;;;;;0.00;0.00;;;;;;;;;;1726665;28;20195;-77
2023/05/05 03:03:05;;;;;;;0.00;0.00;;;;;;;;;;1732564;28;20637;-77
2023/05/05 03:04:01;;;;;;;0.00;0.00;;;;;;;;;;1732438;28;21044;-77
2023/05/05 03:04:56;;;;;;;0.00;0.00;;;;;;;;;;1732179;28;20206;-77
2023/05/05 03:05:51;;;;;;;0.00;0.00;;;;;;;;;;1732889;28;20226;-77
2023/05/05 03:06:45;;;;;;;0.00;0.00;;;;;;;;;;1731862;28;20207;-77
2023/05/05 03:07:39;;;;;;;0.00;0.00;;;;;;;;;;1732442;28;20230;-77
2023/05/05 03:08:36;;;;;;;0.00;0.00;;;;;;;;;;1731810;28;20257;-78
2023/05/05 03:09:31;;;;;;;0.00;0.00;;;;;;;;;;1732230;28;20195;-77
2023/05/05 03:10:27;;;;;;;0.00;0.00;;;;;;;;;;1729407;28;20947;-77
2023/05/05 03:11:23;;;;;;;0.00;0.00;;;;;;;;;;1731864;28;20345;-77
2023/05/05 03:12:17;;;;;;;0.00;0.00;;;;;;;;;;1732296;28;20208;-77
2023/05/05 03:13:10;;;;;;;0.00;0.00;;;;;;;;;;1729305;28;20587;-75
2023/05/05 03:14:05;;;;;;;0.00;0.00;;;;;;;;;;1732779;28;20577;-76
2023/05/05 03:14:58;;;;;;;0.00;0.00;;;;;;;;;;1731713;28;20555;-76
2023/05/05 03:15:51;;;;;;;0.00;0.00;;;;;;;;;;1732913;28;20209;-76
2023/05/05 03:16:44;;;;;;;0.00;0.00;;;;;;;;;;1731807;28;20245;-76
2023/05/05 03:17:35;;;;;;;0.00;0.00;;;;;;;;;;1732339;28;20521;-76
2023/05/05 03:18:28;;;;;;;0.00;0.00;;;;;;;;;;1731767;28;20597;-76
2023/05/05 03:19:19;;;;;;;0.00;0.00;;;;;;;;;;1731637;28;20579;-76
2023/05/05 03:20:14;;;;;;;0.00;0.00;;;;;;;;;;1728809;28;20203;-76
2023/05/05 03:21:07;;;;;;;0.00;0.00;;;;;;;;;;1732199;28;20242;-76
2023/05/05 03:21:59;;;;;;;0.00;0.00;;;;;;;;;;1732221;28;20271;-76
2023/05/05 03:22:51;;;;;;;0.00;0.00;;;;;;;;;;1731752;28;20263;-76
2023/05/05 03:23:42;;;;;;;0.00;0.00;;;;;;;;;;1732181;28;20230;-76
2023/05/05 03:24:34;;;;;;;0.00;0.00;;;;;;;;;;1731904;28;20211;-76
2023/05/05 03:25:40;;;;;;;0.00;0.00;;;;;;;;;;1732486;28;20211;-76
2023/05/05 03:26:32;;;;;;;0.00;0.00;;;;;;;;;;1731504;28;20437;-76
2023/05/05 03:27:23;;;;;;;0.00;0.00;;;;;;;;;;1732105;28;20730;-75
2023/05/05 03:28:15;;;;;;;0.00;0.00;;;;;;;;;;1731992;28;20301;-75
2023/05/05 03:29:06;;;;;;;0.00;0.00;;;;;;;;;;1732387;28;20213;-75
2023/05/05 03:29:58;;;;;;;0.00;0.00;;;;;;;;;;1731848;28;20593;-75
2023/05/05 03:30:49;;;;;;;0.00;0.00;;;;;;;;;;1732660;28;20352;-75
2023/05/05 03:31:41;;;;;;;0.00;0.00;;;;;;;;;;1731675;28;20202;-75
2023/05/05 03:32:32;;;;;;;0.00;0.00;;;;;;;;;;1732451;28;20623;-75
2023/05/05 03:33:24;;;;;;;0.00;0.00;;;;;;;;;;1731141;28;20238;-76
2023/05/05 03:34:15;;;;;;;0.00;0.00;;;;;;;;;;1732217;28;20276;-76
2023/05/05 03:35:08;;;;;;;0.00;0.00;;;;;;;;;;1732495;28;20647;-76
2023/05/05 03:36:00;;;;;;;0.00;0.00;;;;;;;;;;1725873;28;20214;-75
2023/05/05 03:36:52;;;;;;;0.00;0.00;;;;;;;;;;1731959;28;20301;-75
2023/05/05 03:37:43;;;;;;;0.00;0.00;;;;;;;;;;1731682;28;20208;-75
2023/05/05 03:38:35;;;;;;;0.00;0.00;;;;;;;;;;1731814;28;20695;-75
2023/05/05 03:39:26;;;;;;;0.00;0.00;;;;;;;;;;1731686;28;20267;-75
2023/05/05 03:40:18;;;;;;;0.00;0.00;;;;;;;;;;1730604;28;20265;-75
2023/05/05 03:41:09;;;;;;;0.00;0.00;;;;;;;;;;1731765;28;20209;-76
2023/05/05 03:42:01;;;;;;;0.00;0.00;;;;;;;;;;1728486;28;20204;-76
2023/05/05 03:42:52;;;;;;;0.00;0.00;;;;;;;;;;1730945;28;20580;-76
2023/05/05 03:43:44;;;;;;;0.00;0.00;;;;;;;;;;1731965;28;20591;-76
2023/05/05 03:44:35;;;;;;;0.00;0.00;;;;;;;;;;1731854;28;20206;-75
2023/05/05 03:45:27;;;;;;;0.00;0.00;;;;;;;;;;1732338;28;20603;-76
2023/05/05 03:46:18;;;;;;;0.00;0.00;;;;;;;;;;1731395;28;20623;-76
2023/05/05 03:47:10;;;;;;;0.00;0.00;;;;;;;;;;1732046;28;20212;-75
2023/05/05 03:48:01;;;;;;;0.00;0.00;;;;;;;;;;1731977;28;20213;-76
2023/05/05 03:48:55;;;;;;;0.00;0.00;;;;;;;;;;1732292;28;20594;-76
2023/05/05 03:49:46;;;;;;;0.00;0.00;;;;;;;;;;1730823;28;20212;-76
2023/05/05 03:50:38;;;;;;;0.00;0.00;;;;;;;;;;1729503;28;20279;-76
2023/05/05 03:51:31;;;;;;;0.00;0.00;;;;;;;;;;1729551;28;20210;-76
2023/05/05 03:52:23;;;;;;;0.00;0.00;;;;;;;;;;1731774;28;20639;-76
2023/05/05 03:53:14;;;;;;;0.00;0.00;;;;;;;;;;1731094;28;20271;-75
2023/05/05 03:54:06;;;;;;;0.00;0.00;;;;;;;;;;1732119;28;20213;-75
2023/05/05 03:54:58;;;;;;;0.00;0.00;;;;;;;;;;1729858;28;20618;-75
2023/05/05 03:55:52;;;;;;;0.00;0.00;;;;;;;;;;1731988;28;20210;-76
2023/05/05 03:56:43;;;;;;;0.00;0.00;;;;;;;;;;1731381;28;20218;-75
2023/05/05 03:57:35;;;;;;;0.00;0.00;;;;;;;;;;1732166;28;20204;-75
2023/05/05 03:58:26;;;;;;;0.00;0.00;;;;;;;;;;1732407;28;20201;-76
2023/05/05 03:59:18;;;;;;;0.00;0.00;;;;;;;;;;1737780;28;20226;-76
2023/05/05 04:00:10;;;;;;;0.00;0.00;;;;;;;;;;1732326;28;20211;-76
2023/05/05 04:01:02;;;;;;;0.00;0.00;;;;;;;;;;1726055;28;20557;-75
2023/05/05 04:01:53;;;;;;;0.00;0.00;;;;;;;;;;1729442;28;20214;-75
2023/05/05 04:02:45;;;;;;;0.00;0.00;;;;;;;;;;1729374;28;20206;-75
2023/05/05 04:03:37;;;;;;;0.00;0.00;;;;;;;;;;1729967;28;20267;-75
2023/05/05 04:04:29;;;;;;;0.00;0.00;;;;;;;;;;1731337;28;20198;-76
2023/05/05 04:05:21;;;;;;;0.00;0.00;;;;;;;;;;1730405;28;20208;-75
2023/05/05 04:06:14;;;;;;;0.00;0.00;;;;;;;;;;1731406;28;20659;-75
2023/05/05 04:07:06;;;;;;;0.00;0.00;;;;;;;;;;1729393;28;20652;-75
2023/05/05 04:07:57;;;;;;;0.00;0.00;;;;;;;;;;1731213;28;20214;-75
2023/05/05 04:08:49;;;;;;;0.00;0.00;;;;;;;;;;1731589;28;20532;-75
2023/05/05 04:09:43;;;;;;;0.00;0.00;;;;;;;;;;1731397;28;20273;-75
2023/05/05 04:10:35;;;;;;;0.00;0.00;;;;;;;;;;1732033;28;20261;-75
2023/05/05 04:11:26;;;;;;;0.00;0.00;;;;;;;;;;1733602;28;20206;-76
2023/05/05 04:12:18;;;;;;;0.00;0.00;;;;;;;;;;1738760;28;20588;-76
2023/05/05 04:13:09;;;;;;;0.00;0.00;;;;;;;;;;1738449;28;20274;-76
2023/05/05 04:14:01;;;;;;;0.00;0.00;;;;;;;;;;1738450;28;20230;-75
2023/05/05 04:14:52;;;;;;;0.00;0.00;;;;;;;;;;1738274;28;20589;-75
2023/05/05 04:15:44;;;;;;;0.00;0.00;;;;;;;;;;1739338;28;20553;-76
2023/05/05 04:16:36;;;;;;;0.00;0.00;;;;;;;;;;1738254;28;20212;-75
2023/05/05 04:17:27;;;;;;;0.00;0.00;;;;;;;;;;1738647;28;20206;-75
2023/05/05 04:18:19;;;;;;;0.00;0.00;;;;;;;;;;1738283;28;20275;-75
2023/05/05 04:19:11;;;;;;;0.00;0.00;;;;;;;;;;1738814;28;20270;-76
2023/05/05 04:20:04;;;;;;;0.00;0.00;;;;;;;;;;1739145;28;20210;-75
2023/05/05 04:20:55;;;;;;;0.00;0.00;;;;;;;;;;1738799;28;20296;-75
2023/05/05 04:21:48;;;;;;;0.00;0.00;;;;;;;;;;1738447;28;20208;-75
2023/05/05 04:22:40;;;;;;;0.00;0.00;;;;;;;;;;1738680;28;20214;-75
2023/05/05 04:23:32;;;;;;;0.00;0.00;;;;;;;;;;1738050;28;20517;-76
2023/05/05 04:24:23;;;;;;;0.00;0.00;;;;;;;;;;1738686;28;20227;-74
2023/05/05 04:25:15;;;;;;;0.00;0.00;;;;;;;;;;1738876;28;20201;-76
2023/05/05 04:26:06;;;;;;;0.00;0.00;;;;;;;;;;1738739;28;20269;-76
2023/05/05 04:26:58;;;;;;;0.00;0.00;;;;;;;;;;1738837;28;20206;-76
2023/05/05 04:27:49;;;;;;;0.00;0.00;;;;;;;;;;1738146;28;20207;-76
2023/05/05 04:28:41;;;;;;;0.00;0.00;;;;;;;;;;1738847;28;20706;-76
2023/05/05 04:29:32;;;;;;;0.00;0.00;;;;;;;;;;1738101;28;20208;-76
2023/05/05 04:30:24;;;;;;;0.00;0.00;;;;;;;;;;1739019;28;20377;-76
2023/05/05 04:31:15;;;;;;;0.00;0.00;;;;;;;;;;1738021;28;20233;-76
2023/05/05 04:32:07;;;;;;;0.00;0.00;;;;;;;;;;1738729;28;20204;-76
2023/05/05 04:32:58;;;;;;;0.00;0.00;;;;;;;;;;1738397;28;20270;-76
2023/05/05 04:33:50;;;;;;;0.00;0.00;;;;;;;;;;1738389;28;20684;-76
2023/05/05 04:34:41;;;;;;;0.00;0.00;;;;;;;;;;1738420;28;20258;-76
2023/05/05 04:35:33;;;;;;;0.00;0.00;;;;;;;;;;1738866;28;20205;-76
2023/05/05 04:36:24;;;;;;;0.00;0.00;;;;;;;;;;1738254;28;20274;-77
2023/05/05 04:37:16;;;;;;;0.00;0.00;;;;;;;;;;1738909;28;20625;-76
2023/05/05 04:38:09;;;;;;;0.00;0.00;;;;;;;;;;1737911;28;20282;-76
2023/05/05 04:39:01;;;;;;;0.00;0.00;;;;;;;;;;1738777;28;20247;-76
2023/05/05 04:39:52;;;;;;;0.00;0.00;;;;;;;;;;1738042;28;20214;-76
2023/05/05 04:40:44;;;;;;;0.00;0.00;;;;;;;;;;1739085;28;20651;-76
2023/05/05 04:41:35;;;;;;;0.00;0.00;;;;;;;;;;1738380;28;20242;-76
2023/05/05 04:42:27;;;;;;;0.00;0.00;;;;;;;;;;1735113;28;20224;-76
2023/05/05 04:43:18;;;;;;;0.00;0.00;;;;;;;;;;1738483;28;20240;-76
2023/05/05 04:44:10;;;;;;;0.00;0.00;;;;;;;;;;1745910;28;20282;-76
2023/05/05 04:45:01;;;;;;;0.00;0.00;;;;;;;;;;1738402;28;20205;-76
2023/05/05 04:45:53;;;;;;;0.00;0.00;;;;;;;;;;1738686;28;20606;-76
2023/05/05 04:46:44;;;;;;;0.00;0.00;;;;;;;;;;1738124;28;20209;-76
2023/05/05 04:47:39;;;;;;;0.00;0.00;;;;;;;;;;1738920;28;20590;-76
2023/05/05 04:48:30;;;;;;;0.00;0.00;;;;;;;;;;1738208;28;20686;-76
2023/05/05 04:49:22;;;;;;;0.00;0.00;;;;;;;;;;1738017;28;20282;-76
2023/05/05 04:50:14;;;;;;;0.00;0.00;;;;;;;;;;1740815;28;20271;-76
2023/05/05 04:51:06;;;;;;;0.00;0.00;;;;;;;;;;1735669;28;20233;-76
2023/05/05 04:51:57;;;;;;;0.00;0.00;;;;;;;;;;1738649;28;20604;-76
2023/05/05 04:52:49;;;;;;;0.00;0.00;;;;;;;;;;1738168;28;20655;-76
2023/05/05 04:53:41;;;;;;;0.00;0.00;;;;;;;;;;1738334;28;20259;-76
2023/05/05 04:54:36;;;;;;;0.00;0.00;;;;;;;;;;1738032;28;20207;-75
2023/05/05 04:55:27;;;;;;;0.00;0.00;;;;;;;;;;1737845;28;20514;-75
2023/05/05 04:56:19;;;;;;;0.00;0.00;;;;;;;;;;1737921;28;20205;-76
2023/05/05 04:57:10;;;;;;;0.00;0.00;;;;;;;;;;1739037;28;20207;-76
2023/05/05 04:58:02;;;;;;;0.00;0.00;;;;;;;;;;1735071;28;20251;-76
2023/05/05 04:58:53;;;;;;;0.00;0.00;;;;;;;;;;1738686;28;20354;-76
2023/05/05 04:59:45;;;;;;;0.00;0.00;;;;;;;;;;1738344;28;20235;-76
2023/05/05 05:00:36;;;;;;;0.00;0.00;;;;;;;;;;1738717;28;20200;-76
2023/05/05 05:01:28;;;;;;;0.00;0.00;;;;;;;;;;1738242;28;20292;-77
2023/05/05 05:02:19;;;;;;;0.00;0.00;;;;;;;;;;1737915;28;20270;-77
2023/05/05 05:03:11;;;;;;;0.00;0.00;;;;;;;;;;1738332;28;20623;-75
2023/05/05 05:04:03;;;;;;;0.00;0.00;;;;;;;;;;1738868;28;20245;-76
2023/05/05 05:04:55;;;;;;;0.00;0.00;;;;;;;;;;1738178;28;20203;-76
2023/05/05 05:05:46;;;;;;;0.00;0.00;;;;;;;;;;1739321;28;20266;-76
2023/05/05 05:06:38;;;;;;;0.00;0.00;;;;;;;;;;1738258;28;20237;-75
2023/05/05 05:07:29;;;;;;;0.00;0.00;;;;;;;;;;1738749;28;20214;-76
2023/05/05 05:08:21;;;;;;;0.00;0.00;;;;;;;;;;1738540;28;20588;-76
2023/05/05 05:09:14;;;;;;;0.00;0.00;;;;;;;;;;1738935;28;20632;-76
2023/05/05 05:10:06;;;;;;;0.00;0.00;;;;;;;;;;1739173;28;20209;-76
2023/05/05 05:10:58;;;;;;;0.00;0.00;;;;;;;;;;1738756;28;20270;-76
2023/05/05 05:11:50;;;;;;;0.00;0.00;;;;;;;;;;1738331;28;20241;-76
2023/05/05 05:12:41;;;;;;;0.00;0.00;;;;;;;;;;1738811;28;20513;-75
2023/05/05 05:13:33;;;;;;;0.00;0.00;;;;;;;;;;1738361;28;20268;-75
2023/05/05 05:14:24;;;;;;;0.00;0.00;;;;;;;;;;1738837;28;20236;-76
2023/05/05 05:15:16;;;;;;;0.00;0.00;;;;;;;;;;1739296;28;20211;-76
2023/05/05 05:16:07;;;;;;;0.00;0.00;;;;;;;;;;1738878;28;20207;-76